Time;durP1;ratioP1;P1;durP2;ratioP2;P2;SDS_P1;SDS_P2;PMS_P1;PMS_P2;Temp;Humidity;BMP_temperature;BMP_pressure;BME280_temperature;BME280_humidity;BME280_pressure;Samples;Min_cycle;Max_cycle;Signal;HPM_P1;HPM_P2
2022/03/27 00:02:18;;;;;;;;;;;23.70;44.60;;;;;;4964538;29;1734;-36
2022/03/27 00:04:48;;;;;;;;;;;23.70;44.70;;;;;;4963513;29;1006;-36
2022/03/27 00:07:15;;;;;;;;;;;23.70;44.60;;;;;;4962306;29;1894;-36
2022/03/27 00:09:45;;;;;;;;;;;23.70;44.70;;;;;;4961168;29;1023;-36
2022/03/27 00:12:12;;;;;;;;;;;23.80;44.80;;;;;;4961402;29;1491;-34
2022/03/27 00:14:43;;;;;;;;;;;23.70;44.70;;;;;;4961846;29;1017;-36
2022/03/27 00:17:11;;;;;;;;;;;23.80;44.70;;;;;;4961858;29;957;-37
2022/03/27 00:19:38;;;;;;;;;;;23.80;44.80;;;;;;4962942;29;1018;-37
2022/03/27 00:22:05;;;;;;;;;;;23.80;44.70;;;;;;4962004;29;1097;-36
2022/03/27 00:24:32;;;;;;;;;;;23.70;44.70;;;;;;4963025;29;988;-36
2022/03/27 00:26:59;;;;;;;;;;;23.80;44.80;;;;;;4963052;29;1895;-37
2022/03/27 00:29:30;;;;;;;;;;;23.80;44.70;;;;;;4961888;29;938;-35
2022/03/27 00:32:01;;;;;;;;;;;23.80;44.70;;;;;;4961628;29;755;-34
2022/03/27 00:34:28;;;;;;;;;;;23.80;45.10;;;;;;4960852;29;1570;-34
2022/03/27 00:36:59;;;;;;;;;;;23.80;44.70;;;;;;4961405;29;1003;-35
2022/03/27 00:39:26;;;;;;;;;;;23.80;44.80;;;;;;4962687;29;1505;-35
2022/03/27 00:41:54;;;;;;;;;;;23.70;44.80;;;;;;4960919;29;1042;-34
2022/03/27 00:44:22;;;;;;;;;;;23.70;44.90;;;;;;4961029;29;976;-34
2022/03/27 00:46:54;;;;;;;;;;;23.70;45.00;;;;;;4961664;28;1902;-34
2022/03/27 00:49:26;;;;;;;;;;;23.70;45.00;;;;;;4963610;29;1058;-34
2022/03/27 00:51:54;;;;;;;;;;;23.70;45.00;;;;;;4963869;29;1043;-34
2022/03/27 00:54:23;;;;;;;;;;;23.60;45.00;;;;;;4963534;29;1449;-34
2022/03/27 00:56:50;;;;;;;;;;;23.60;45.00;;;;;;4963136;29;2212;-35
2022/03/27 00:59:17;;;;;;;;;;;23.60;45.00;;;;;;4963328;28;1212;-35
2022/03/27 01:01:44;;;;;;;;;;;23.60;45.10;;;;;;4962669;29;958;-35
2022/03/27 01:04:12;;;;;;;;;;;23.60;45.10;;;;;;4963603;29;1058;-35
2022/03/27 01:06:43;;;;;;;;;;;23.60;45.10;;;;;;4963267;29;1879;-35
2022/03/27 01:11:56;;;;;;;;;;;23.60;45.10;;;;;;4964168;29;682;-36
2022/03/27 01:14:27;;;;;;;;;;;23.60;45.10;;;;;;4964676;29;997;-35
2022/03/27 01:17:01;;;;;;;;;;;23.60;45.10;;;;;;4963963;29;1002;-35
2022/03/27 01:19:28;;;;;;;;;;;23.60;45.10;;;;;;4964653;29;968;-38
2022/03/27 01:21:57;;;;;;;;;;;23.60;45.10;;;;;;4962819;29;2058;-38
2022/03/27 01:24:24;;;;;;;;;;;23.60;45.00;;;;;;4963783;29;1016;-37
2022/03/27 01:26:51;;;;;;;;;;;23.60;45.10;;;;;;4962754;29;2021;-38
2022/03/27 01:29:19;;;;;;;;;;;23.60;45.10;;;;;;4963653;29;1482;-37
2022/03/27 01:31:47;;;;;;;;;;;23.60;45.20;;;;;;4963762;29;981;-39
2022/03/27 01:34:15;;;;;;;;;;;23.60;45.20;;;;;;4964808;29;2095;-37
2022/03/27 01:36:42;;;;;;;;;;;23.60;45.20;;;;;;4963856;29;933;-37
2022/03/27 01:39:12;;;;;;;;;;;23.60;45.20;;;;;;4963979;29;1024;-37
2022/03/27 01:41:40;;;;;;;;;;;23.60;45.20;;;;;;4964030;29;938;-37
2022/03/27 01:44:08;;;;;;;;;;;23.60;45.30;;;;;;4964107;29;979;-38
2022/03/27 01:46:37;;;;;;;;;;;23.60;45.20;;;;;;4963821;29;876;-36
2022/03/27 01:49:05;;;;;;;;;;;23.60;45.20;;;;;;4962650;29;1976;-35
2022/03/27 01:51:33;;;;;;;;;;;23.50;45.20;;;;;;4962623;29;1009;-35
2022/03/27 01:54:01;;;;;;;;;;;23.60;45.20;;;;;;4963279;29;987;-36
2022/03/27 01:56:30;;;;;;;;;;;23.60;45.20;;;;;;4963534;29;1493;-35
2022/03/27 01:58:57;;;;;;;;;;;23.50;45.10;;;;;;4962251;28;981;-35
2022/03/27 02:01:25;;;;;;;;;;;23.60;45.20;;;;;;4980425;28;1299;-35
2022/03/27 02:03:54;;;;;;;;;;;23.60;45.20;;;;;;4982035;28;917;-35
2022/03/27 02:06:23;;;;;;;;;;;23.50;45.10;;;;;;4982018;28;1040;-35
2022/03/27 02:08:52;;;;;;;;;;;23.50;46.20;;;;;;4981631;28;2001;-35
2022/03/27 02:11:20;;;;;;;;;;;23.60;45.20;;;;;;4982278;28;1005;-36
2022/03/27 02:13:48;;;;;;;;;;;23.60;45.20;;;;;;4982673;28;902;-44
2022/03/27 02:16:15;;;;;;;;;;;23.50;45.20;;;;;;4979979;28;1088;-43
2022/03/27 02:18:42;;;;;;;;;;;23.50;45.20;;;;;;4980346;28;1014;-39
2022/03/27 02:21:09;;;;;;;;;;;23.50;45.10;;;;;;4980260;28;998;-45
2022/03/27 02:23:37;;;;;;;;;;;23.60;45.10;;;;;;4980271;28;1485;-43
2022/03/27 02:26:05;;;;;;;;;;;23.60;45.10;;;;;;4980101;28;934;-43
2022/03/27 02:28:32;;;;;;;;;;;23.60;45.10;;;;;;4978930;28;1968;-44
2022/03/27 02:31:00;;;;;;;;;;;23.50;45.10;;;;;;4980468;28;998;-42
2022/03/27 02:33:27;;;;;;;;;;;23.50;45.10;;;;;;4980837;28;1065;-43
2022/03/27 02:35:54;;;;;;;;;;;23.60;45.20;;;;;;4980202;28;942;-44
2022/03/27 02:38:22;;;;;;;;;;;23.60;45.00;;;;;;4980045;28;998;-42
2022/03/27 02:40:49;;;;;;;;;;;23.60;45.00;;;;;;4980033;28;926;-43
2022/03/27 02:43:16;;;;;;;;;;;23.50;45.00;;;;;;4981822;28;990;-42
2022/03/27 02:45:44;;;;;;;;;;;23.60;45.10;;;;;;4979060;28;1014;-40
2022/03/27 02:48:12;;;;;;;;;;;23.50;45.10;;;;;;4979524;28;1903;-42
2022/03/27 02:50:43;;;;;;;;;;;23.50;45.10;;;;;;4979571;28;1234;-42
2022/03/27 02:53:10;;;;;;;;;;;23.50;45.10;;;;;;4979999;28;965;-41
2022/03/27 02:55:37;;;;;;;;;;;23.50;45.10;;;;;;4980337;28;922;-43
2022/03/27 02:58:06;;;;;;;;;;;23.50;45.10;;;;;;4979480;28;1042;-40
2022/03/27 03:00:34;;;;;;;;;;;23.50;45.10;;;;;;4979270;28;1186;-42
2022/03/27 03:03:01;;;;;;;;;;;23.50;45.30;;;;;;4979583;28;1001;-42
2022/03/27 03:05:30;;;;;;;;;;;23.50;45.20;;;;;;4978368;28;1037;-42
2022/03/27 03:07:58;;;;;;;;;;;23.50;45.20;;;;;;4978641;28;1907;-42
2022/03/27 03:10:25;;;;;;;;;;;23.50;45.30;;;;;;4978300;28;1602;-41
2022/03/27 03:12:52;;;;;;;;;;;23.50;45.20;;;;;;4979690;28;1006;-44
2022/03/27 03:15:19;;;;;;;;;;;23.50;45.20;;;;;;4979531;28;1105;-42
2022/03/27 03:17:46;;;;;;;;;;;23.50;45.10;;;;;;4979908;28;982;-42
2022/03/27 03:20:13;;;;;;;;;;;23.50;45.20;;;;;;4979581;28;1012;-42
2022/03/27 03:22:43;;;;;;;;;;;23.50;45.20;;;;;;4979318;28;981;-42
2022/03/27 03:25:10;;;;;;;;;;;23.50;45.20;;;;;;4978766;28;938;-41
2022/03/27 03:27:37;;;;;;;;;;;23.50;45.20;;;;;;4978768;28;1910;-39
2022/03/27 03:30:06;;;;;;;;;;;23.50;45.20;;;;;;4978984;28;954;-43
2022/03/27 03:32:36;;;;;;;;;;;23.50;45.20;;;;;;4978940;28;2027;-42
2022/03/27 03:35:03;;;;;;;;;;;23.50;45.20;;;;;;4978879;28;935;-41
2022/03/27 03:37:31;;;;;;;;;;;23.50;45.10;;;;;;4979046;28;1025;-42
2022/03/27 03:40:01;;;;;;;;;;;23.50;46.30;;;;;;4978816;28;1980;-41
2022/03/27 03:42:28;;;;;;;;;;;23.50;46.40;;;;;;4978529;28;1006;-42
2022/03/27 03:44:55;;;;;;;;;;;23.50;45.30;;;;;;4978697;28;986;-40
2022/03/27 03:47:29;;;;;;;;;;;23.50;45.30;;;;;;4978115;28;984;-43
2022/03/27 03:49:56;;;;;;;;;;;23.50;45.20;;;;;;4978648;28;1915;-42
2022/03/27 03:52:23;;;;;;;;;;;23.40;45.20;;;;;;4978822;28;1009;-39
2022/03/27 03:54:50;;;;;;;;;;;23.50;45.30;;;;;;4977655;28;1050;-42
2022/03/27 03:57:21;;;;;;;;;;;23.50;45.30;;;;;;4978040;28;1429;-42
2022/03/27 03:59:48;;;;;;;;;;;23.50;45.10;;;;;;4977600;28;1040;-41
2022/03/27 04:02:18;;;;;;;;;;;23.50;45.20;;;;;;4977412;28;2069;-40
2022/03/27 04:04:46;;;;;;;;;;;23.40;45.10;;;;;;4978041;28;904;-40
2022/03/27 04:07:14;;;;;;;;;;;23.40;45.20;;;;;;4977601;28;1010;-40
2022/03/27 04:09:41;;;;;;;;;;;23.50;45.20;;;;;;4978057;28;2800;-42
2022/03/27 04:12:09;;;;;;;;;;;23.50;45.20;;;;;;4977714;28;956;-42
2022/03/27 04:14:39;;;;;;;;;;;23.40;45.10;;;;;;4977647;28;1013;-42
2022/03/27 04:17:06;;;;;;;;;;;23.50;45.30;;;;;;4977450;28;994;-45
2022/03/27 04:19:33;;;;;;;;;;;23.40;45.20;;;;;;4977627;28;938;-40
2022/03/27 04:22:02;;;;;;;;;;;23.40;45.20;;;;;;4977837;28;914;-42
2022/03/27 04:24:29;;;;;;;;;;;23.40;45.30;;;;;;4977367;28;739;-40
2022/03/27 04:26:56;;;;;;;;;;;23.40;45.10;;;;;;4977654;28;1471;-41
2022/03/27 04:29:24;;;;;;;;;;;23.50;45.20;;;;;;4977036;28;1906;-42
2022/03/27 04:31:55;;;;;;;;;;;23.40;45.10;;;;;;4977127;28;1873;-42
2022/03/27 04:34:22;;;;;;;;;;;23.40;45.10;;;;;;4976882;28;961;-40
2022/03/27 04:36:52;;;;;;;;;;;23.40;45.20;;;;;;4976788;28;1024;-42
2022/03/27 04:39:19;;;;;;;;;;;23.40;45.20;;;;;;4977241;28;1007;-40
2022/03/27 04:41:47;;;;;;;;;;;23.40;45.30;;;;;;4977978;28;661;-41
2022/03/27 04:44:14;;;;;;;;;;;23.40;45.30;;;;;;4977440;28;1005;-42
2022/03/27 04:46:41;;;;;;;;;;;23.40;45.30;;;;;;4977150;28;941;-42
2022/03/27 04:49:09;;;;;;;;;;;23.40;45.20;;;;;;4977344;28;1982;-42
2022/03/27 04:51:37;;;;;;;;;;;23.40;45.20;;;;;;4977990;28;1014;-41
2022/03/27 04:54:04;;;;;;;;;;;23.40;45.30;;;;;;4977785;28;1030;-42
2022/03/27 04:56:32;;;;;;;;;;;23.40;45.20;;;;;;4977723;28;1904;-39
2022/03/27 04:58:59;;;;;;;;;;;23.40;45.30;;;;;;4977835;28;1032;-40
2022/03/27 05:01:26;;;;;;;;;;;23.40;45.20;;;;;;4978008;28;1165;-41
2022/03/27 05:03:55;;;;;;;;;;;23.40;45.20;;;;;;4977554;28;978;-43
2022/03/27 05:06:24;;;;;;;;;;;23.40;45.20;;;;;;4977000;28;1730;-42
2022/03/27 05:08:52;;;;;;;;;;;23.40;45.20;;;;;;4977746;28;1993;-42
2022/03/27 05:11:19;;;;;;;;;;;23.40;45.20;;;;;;4978259;28;957;-42
2022/03/27 05:13:47;;;;;;;;;;;23.40;45.20;;;;;;4976965;28;954;-42
2022/03/27 05:16:15;;;;;;;;;;;23.40;45.30;;;;;;4977116;28;1050;-42
2022/03/27 05:18:42;;;;;;;;;;;23.40;45.30;;;;;;4976913;28;915;-42
2022/03/27 05:21:09;;;;;;;;;;;23.40;45.20;;;;;;4976960;28;1010;-41
2022/03/27 05:23:38;;;;;;;;;;;23.40;45.20;;;;;;4977683;28;1104;-42
2022/03/27 05:26:05;;;;;;;;;;;23.40;45.20;;;;;;4976909;28;927;-43
2022/03/27 05:28:38;;;;;;;;;;;23.40;45.20;;;;;;4976888;28;1961;-42
2022/03/27 05:31:08;;;;;;;;;;;23.40;45.20;;;;;;4976801;28;1617;-42
2022/03/27 05:33:36;;;;;;;;;;;23.40;45.20;;;;;;4979758;28;1007;-42
2022/03/27 05:36:08;;;;;;;;;;;23.40;45.20;;;;;;4980667;28;1642;-42
2022/03/27 05:38:37;;;;;;;;;;;23.40;45.30;;;;;;4980720;28;2240;-39
2022/03/27 05:41:09;;;;;;;;;;;23.40;45.20;;;;;;4980047;28;1015;-41
2022/03/27 05:43:37;;;;;;;;;;;23.40;45.20;;;;;;4980690;28;990;-42
2022/03/27 05:46:04;;;;;;;;;;;23.40;45.30;;;;;;4979837;28;857;-42
2022/03/27 05:48:31;;;;;;;;;;;23.40;45.30;;;;;;4980450;28;1879;-41
2022/03/27 05:50:58;;;;;;;;;;;23.40;45.30;;;;;;4979608;28;981;-37
2022/03/27 05:53:26;;;;;;;;;;;23.40;45.30;;;;;;4979605;28;1006;-42
2022/03/27 05:55:53;;;;;;;;;;;23.40;45.20;;;;;;4980353;28;1021;-41
2022/03/27 05:58:23;;;;;;;;;;;23.40;45.30;;;;;;4980060;28;1622;-41
2022/03/27 06:00:52;;;;;;;;;;;23.40;45.40;;;;;;4980626;28;1114;-41
2022/03/27 06:03:19;;;;;;;;;;;23.40;45.30;;;;;;4979803;28;994;-41
2022/03/27 06:05:47;;;;;;;;;;;23.40;45.30;;;;;;4980583;28;2303;-42
2022/03/27 06:08:14;;;;;;;;;;;23.30;45.30;;;;;;4980357;28;1965;-42
2022/03/27 06:10:42;;;;;;;;;;;23.40;45.30;;;;;;4980301;28;945;-41
2022/03/27 06:13:11;;;;;;;;;;;23.30;45.30;;;;;;4979183;28;992;-39
2022/03/27 06:15:39;;;;;;;;;;;23.30;45.40;;;;;;4979893;28;1450;-41
2022/03/27 06:18:09;;;;;;;;;;;23.40;45.40;;;;;;4979369;28;1026;-41
2022/03/27 06:20:37;;;;;;;;;;;23.30;45.30;;;;;;4979258;28;1029;-44
2022/03/27 06:23:06;;;;;;;;;;;23.30;45.30;;;;;;4979530;28;1546;-42
2022/03/27 06:25:35;;;;;;;;;;;23.40;45.40;;;;;;4979298;28;1005;-41
2022/03/27 06:28:02;;;;;;;;;;;23.40;45.30;;;;;;4979546;28;1037;-39
2022/03/27 06:30:34;;;;;;;;;;;23.40;45.40;;;;;;4978879;28;1899;-41
2022/03/27 06:33:04;;;;;;;;;;;23.40;45.40;;;;;;4979737;28;1045;-40
2022/03/27 06:35:31;;;;;;;;;;;23.30;45.20;;;;;;4978967;28;1026;-41
2022/03/27 06:37:59;;;;;;;;;;;23.30;45.50;;;;;;4978244;28;1474;-40
2022/03/27 06:40:29;;;;;;;;;;;23.40;46.50;;;;;;4978211;28;1031;-42
2022/03/27 06:42:58;;;;;;;;;;;23.40;45.40;;;;;;4977805;28;1022;-41
2022/03/27 06:45:26;;;;;;;;;;;23.30;45.30;;;;;;4978350;28;1013;-41
2022/03/27 06:48:00;;;;;;;;;;;23.40;45.50;;;;;;4976799;28;953;-42
2022/03/27 06:50:28;;;;;;;;;;;23.30;45.40;;;;;;4977573;28;1989;-42
2022/03/27 06:52:56;;;;;;;;;;;23.30;46.50;;;;;;4978054;28;1024;-42
2022/03/27 06:55:24;;;;;;;;;;;23.40;45.50;;;;;;4977416;28;1475;-42
2022/03/27 06:57:51;;;;;;;;;;;23.30;45.40;;;;;;4977054;28;1419;-40
2022/03/27 07:03:04;;;;;;;;;;;23.40;45.50;;;;;;4975887;28;1041;-39
2022/03/27 07:05:37;;;;;;;;;;;23.40;45.40;;;;;;4979254;28;1037;-43
2022/03/27 07:08:05;;;;;;;;;;;23.40;45.40;;;;;;4979365;28;1490;-42
2022/03/27 07:10:33;;;;;;;;;;;23.40;45.50;;;;;;4979250;28;1875;-42
2022/03/27 07:13:00;;;;;;;;;;;23.30;45.80;;;;;;4980479;28;1037;-42
2022/03/27 07:15:28;;;;;;;;;;;23.30;45.40;;;;;;4979024;28;1475;-42
2022/03/27 07:17:55;;;;;;;;;;;23.40;45.50;;;;;;4980198;28;1035;-42
2022/03/27 07:20:24;;;;;;;;;;;23.40;45.50;;;;;;4980867;28;1041;-40
2022/03/27 07:22:53;;;;;;;;;;;23.30;45.50;;;;;;4980225;28;1112;-42
2022/03/27 07:25:21;;;;;;;;;;;23.40;45.60;;;;;;4980881;28;2068;-42
2022/03/27 07:27:49;;;;;;;;;;;23.40;45.60;;;;;;4977260;28;1058;-42
2022/03/27 07:30:16;;;;;;;;;;;23.40;45.70;;;;;;4976933;28;1902;-43
2022/03/27 07:32:44;;;;;;;;;;;23.40;45.60;;;;;;4976248;28;1006;-41
2022/03/27 07:35:12;;;;;;;;;;;23.40;45.60;;;;;;4976605;28;1033;-42
2022/03/27 07:37:41;;;;;;;;;;;23.40;45.50;;;;;;4977332;28;990;-42
2022/03/27 07:40:10;;;;;;;;;;;23.40;45.50;;;;;;4976840;28;1594;-42
2022/03/27 07:42:38;;;;;;;;;;;23.40;45.50;;;;;;4976946;28;1505;-42
2022/03/27 07:45:09;;;;;;;;;;;23.40;45.60;;;;;;4975982;28;1644;-39
2022/03/27 07:47:36;;;;;;;;;;;23.40;45.60;;;;;;4976138;28;1465;-41
2022/03/27 07:50:03;;;;;;;;;;;23.40;45.50;;;;;;4975922;28;1893;-41
2022/03/27 07:52:30;;;;;;;;;;;23.40;45.60;;;;;;4975729;28;1002;-42
2022/03/27 07:54:59;;;;;;;;;;;23.40;45.50;;;;;;4975143;28;1050;-38
2022/03/27 07:57:28;;;;;;;;;;;23.40;45.50;;;;;;4976494;28;1872;-42
2022/03/27 07:59:57;;;;;;;;;;;23.40;45.70;;;;;;4974693;28;1177;-43
2022/03/27 08:02:24;;;;;;;;;;;23.40;45.60;;;;;;4976086;28;1502;-43
2022/03/27 08:04:59;;;;;;;;;;;23.40;45.60;;;;;;4975951;28;1849;-41
2022/03/27 08:07:26;;;;;;;;;;;23.40;45.70;;;;;;4975619;28;897;-38
2022/03/27 08:09:54;;;;;;;;;;;23.40;45.50;;;;;;4975367;28;1906;-39
2022/03/27 08:12:22;;;;;;;;;;;23.40;45.60;;;;;;4976015;28;1009;-42
2022/03/27 08:14:52;;;;;;;;;;;23.40;45.70;;;;;;4975656;28;1633;-41
2022/03/27 08:17:19;;;;;;;;;;;23.40;45.70;;;;;;4976237;28;1603;-42
2022/03/27 08:19:47;;;;;;;;;;;23.40;45.80;;;;;;4976477;28;1366;-42
2022/03/27 08:22:14;;;;;;;;;;;23.40;45.70;;;;;;4976896;28;911;-42
2022/03/27 08:24:41;;;;;;;;;;;23.40;45.70;;;;;;4976168;28;865;-41
2022/03/27 08:27:08;;;;;;;;;;;23.40;45.80;;;;;;4976328;28;933;-42
2022/03/27 08:29:41;;;;;;;;;;;23.40;45.80;;;;;;4977101;28;1987;-42
2022/03/27 08:32:12;;;;;;;;;;;23.40;45.70;;;;;;4975871;28;962;-42
2022/03/27 08:34:40;;;;;;;;;;;23.40;45.80;;;;;;4974887;28;944;-41
2022/03/27 08:37:07;;;;;;;;;;;23.40;45.70;;;;;;4975913;28;1084;-42
2022/03/27 08:39:35;;;;;;;;;;;23.50;45.80;;;;;;4975022;28;1464;-42
2022/03/27 08:42:02;;;;;;;;;;;23.40;45.80;;;;;;4975621;28;1677;-40
2022/03/27 08:44:34;;;;;;;;;;;23.40;45.50;;;;;;4976184;28;1172;-40
2022/03/27 08:47:02;;;;;;;;;;;23.40;45.70;;;;;;4977037;28;997;-42
2022/03/27 08:49:35;;;;;;;;;;;23.40;45.60;;;;;;4975979;28;1981;-43
2022/03/27 08:52:04;;;;;;;;;;;23.50;45.70;;;;;;4970046;28;1499;-40
2022/03/27 08:54:35;;;;;;;;;;;23.40;45.70;;;;;;4968727;28;859;-41
2022/03/27 08:57:08;;;;;;;;;;;23.50;45.90;;;;;;4974460;28;987;-41
2022/03/27 08:59:37;;;;;;;;;;;23.50;45.80;;;;;;4974253;28;1149;-39
2022/03/27 09:02:04;;;;;;;;;;;23.50;45.60;;;;;;4976949;28;1091;-39
2022/03/27 09:04:33;;;;;;;;;;;23.50;45.60;;;;;;4977213;28;1797;-42
2022/03/27 09:07:01;;;;;;;;;;;23.50;45.80;;;;;;4978477;28;1002;-39
2022/03/27 09:09:33;;;;;;;;;;;23.50;45.80;;;;;;4981961;28;1891;-38
2022/03/27 09:12:00;;;;;;;;;;;23.50;45.80;;;;;;4979398;28;942;-39
2022/03/27 09:14:28;;;;;;;;;;;23.40;45.60;;;;;;4978059;28;1378;-43
2022/03/27 09:17:02;;;;;;;;;;;23.50;45.80;;;;;;4978709;28;994;-40
2022/03/27 09:19:34;;;;;;;;;;;23.50;45.60;;;;;;4978151;28;1504;-41
2022/03/27 09:22:04;;;;;;;;;;;23.50;45.70;;;;;;4978197;28;922;-41
2022/03/27 09:24:35;;;;;;;;;;;23.50;45.80;;;;;;4978694;28;901;-40
2022/03/27 09:27:01;;;;;;;;;;;23.50;45.80;;;;;;4977582;28;1008;-38
2022/03/27 09:29:28;;;;;;;;;;;23.50;45.80;;;;;;4977012;28;1898;-41
2022/03/27 09:31:57;;;;;;;;;;;23.50;45.80;;;;;;4977570;28;1033;-43
2022/03/27 09:34:24;;;;;;;;;;;23.50;45.70;;;;;;4974083;28;879;-43
2022/03/27 09:36:52;;;;;;;;;;;23.50;45.70;;;;;;4978648;28;997;-40
2022/03/27 09:39:20;;;;;;;;;;;23.50;45.80;;;;;;4979572;28;1099;-42
2022/03/27 09:41:48;;;;;;;;;;;23.50;45.90;;;;;;4979607;28;1003;-38
2022/03/27 09:44:16;;;;;;;;;;;23.50;45.80;;;;;;4979003;28;1026;-41
2022/03/27 09:46:57;;;;;;;;;;;23.50;45.70;;;;;;4978472;28;950;-40
2022/03/27 09:49:37;;;;;;;;;;;23.50;45.70;;;;;;4980117;28;1977;-40
2022/03/27 09:52:08;;;;;;;;;;;23.50;45.60;;;;;;4978642;28;1542;-42
2022/03/27 09:54:46;;;;;;;;;;;23.50;45.50;;;;;;4980302;28;1037;-42
2022/03/27 09:57:16;;;;;;;;;;;23.50;45.60;;;;;;4980922;28;1096;-39
2022/03/27 09:59:45;;;;;;;;;;;23.50;45.40;;;;;;4980918;28;1748;-43
2022/03/27 10:02:19;;;;;;;;;;;23.50;45.60;;;;;;4979577;28;1015;-43
2022/03/27 10:04:56;;;;;;;;;;;23.50;45.60;;;;;;4979637;28;1173;-43
2022/03/27 10:07:26;;;;;;;;;;;23.50;45.50;;;;;;4979533;28;993;-42
2022/03/27 10:09:54;;;;;;;;;;;23.50;45.50;;;;;;4978144;28;1985;-39
2022/03/27 10:12:26;;;;;;;;;;;23.50;45.60;;;;;;4977492;28;886;-39
2022/03/27 10:14:54;;;;;;;;;;;23.50;45.60;;;;;;4978641;28;934;-42
2022/03/27 10:17:23;;;;;;;;;;;23.50;45.50;;;;;;4978570;28;994;-41
2022/03/27 10:19:52;;;;;;;;;;;23.50;45.60;;;;;;4977641;28;3168;-42
2022/03/27 10:22:21;;;;;;;;;;;23.50;45.50;;;;;;4979073;28;1022;-42
2022/03/27 10:24:52;;;;;;;;;;;23.60;45.80;;;;;;4978980;28;1136;-42
2022/03/27 10:27:19;;;;;;;;;;;23.50;45.70;;;;;;4979471;28;989;-42
2022/03/27 10:29:48;;;;;;;;;;;23.60;45.60;;;;;;4979947;28;1989;-43
2022/03/27 10:32:15;;;;;;;;;;;23.60;45.60;;;;;;4979314;28;922;-46
2022/03/27 10:34:48;;;;;;;;;;;23.50;45.60;;;;;;4979196;28;1252;-44
2022/03/27 10:37:19;;;;;;;;;;;23.60;45.60;;;;;;4978805;28;985;-42
2022/03/27 10:39:49;;;;;;;;;;;23.60;45.70;;;;;;4981217;28;946;-45
2022/03/27 10:42:20;;;;;;;;;;;23.60;45.60;;;;;;4979937;28;2147;-45
2022/03/27 10:44:51;;;;;;;;;;;23.60;45.60;;;;;;4979378;28;1887;-49
2022/03/27 10:47:18;;;;;;;;;;;23.60;45.80;;;;;;4979066;28;1037;-45
2022/03/27 10:50:00;;;;;;;;;;;23.60;45.80;;;;;;4978483;28;1989;-42
2022/03/27 10:52:27;;;;;;;;;;;23.60;45.90;;;;;;4977868;28;1057;-43
2022/03/27 10:54:58;;;;;;;;;;;23.60;45.80;;;;;;4978536;28;1181;-45
2022/03/27 10:57:30;;;;;;;;;;;23.70;45.80;;;;;;4977995;28;1104;-45
2022/03/27 10:59:57;;;;;;;;;;;23.70;45.70;;;;;;4978702;28;1972;-44
2022/03/27 11:02:39;;;;;;;;;;;23.80;45.00;;;;;;4977978;28;970;-44
2022/03/27 11:05:07;;;;;;;;;;;23.70;45.10;;;;;;4976690;28;1938;-43
2022/03/27 11:07:34;;;;;;;;;;;23.70;45.50;;;;;;4977652;28;914;-43
2022/03/27 11:10:00;;;;;;;;;;;23.90;45.40;;;;;;4977900;28;1899;-39
2022/03/27 11:12:29;;;;;;;;;;;23.90;45.30;;;;;;4978103;28;981;-40
2022/03/27 11:15:03;;;;;;;;;;;23.80;45.10;;;;;;4978808;28;906;-38
2022/03/27 11:17:35;;;;;;;;;;;23.90;45.30;;;;;;4978023;28;1021;-38
2022/03/27 11:20:02;;;;;;;;;;;23.80;45.30;;;;;;4978465;28;1578;-37
2022/03/27 11:22:42;;;;;;;;;;;23.80;45.00;;;;;;4979283;28;1074;-37
2022/03/27 11:25:28;;;;;;;;;;;23.70;44.90;;;;;;4979771;28;1002;-36
2022/03/27 11:27:57;;;;;;;;;;;23.70;45.10;;;;;;4978376;28;906;-36
2022/03/27 11:30:25;;;;;;;;;;;23.70;45.10;;;;;;4978025;28;1898;-36
2022/03/27 11:33:11;;;;;;;;;;;23.80;45.20;;;;;;4978034;28;1006;-36
2022/03/27 11:35:38;;;;;;;;;;;23.80;45.30;;;;;;4978245;28;1020;-36
2022/03/27 11:38:21;;;;;;;;;;;23.90;45.30;;;;;;4977279;28;1502;-36
2022/03/27 11:40:49;;;;;;;;;;;23.90;45.20;;;;;;4977791;28;891;-36
2022/03/27 11:43:29;;;;;;;;;;;23.90;45.30;;;;;;4976961;28;1085;-36
2022/03/27 11:45:58;;;;;;;;;;;23.90;45.50;;;;;;4976436;28;1029;-36
2022/03/27 11:48:26;;;;;;;;;;;23.90;45.70;;;;;;4975384;28;907;-36
2022/03/27 11:50:54;;;;;;;;;;;23.90;45.60;;;;;;4978885;28;1989;-36
2022/03/27 11:53:31;;;;;;;;;;;23.90;45.70;;;;;;4964254;28;1023;-45
2022/03/27 11:56:07;;;;;;;;;;;23.90;45.80;;;;;;4978982;28;982;-37
2022/03/27 11:58:35;;;;;;;;;;;24.00;45.80;;;;;;4977949;28;1597;-38
2022/03/27 12:01:05;;;;;;;;;;;24.00;45.90;;;;;;4978386;28;1180;-34
2022/03/27 12:03:32;;;;;;;;;;;24.00;46.10;;;;;;4977927;28;1027;-35
2022/03/27 12:06:05;;;;;;;;;;;24.10;45.90;;;;;;4977909;28;1037;-35
2022/03/27 12:08:33;;;;;;;;;;;24.00;45.80;;;;;;4979728;28;1258;-38
2022/03/27 12:11:04;;;;;;;;;;;24.10;45.90;;;;;;4976973;28;1990;-38
2022/03/27 12:13:35;;;;;;;;;;;24.00;45.90;;;;;;4977029;28;1572;-38
2022/03/27 12:16:05;;;;;;;;;;;24.00;46.00;;;;;;4978091;28;1141;-38
2022/03/27 12:18:32;;;;;;;;;;;24.00;46.10;;;;;;4979304;28;1455;-38
2022/03/27 12:21:00;;;;;;;;;;;24.00;46.20;;;;;;4978001;28;1025;-38
2022/03/27 12:23:28;;;;;;;;;;;24.00;46.10;;;;;;4978582;28;1294;-38
2022/03/27 12:25:58;;;;;;;;;;;23.90;46.00;;;;;;4977641;28;1065;-39
2022/03/27 12:31:26;;;;;;;;;;;23.90;46.00;;;;;;4953758;28;1893;-38
2022/03/27 12:33:53;;;;;;;;;;;23.90;46.00;;;;;;4977698;28;982;-38
2022/03/27 12:36:20;;;;;;;;;;;23.90;46.10;;;;;;4977898;28;1899;-39
2022/03/27 12:38:47;;;;;;;;;;;23.90;46.10;;;;;;4977210;28;930;-38
2022/03/27 12:41:15;;;;;;;;;;;23.90;45.90;;;;;;4977028;28;1002;-39
2022/03/27 12:43:56;;;;;;;;;;;23.90;46.00;;;;;;4977730;28;1003;-40
2022/03/27 12:46:23;;;;;;;;;;;23.90;46.00;;;;;;4976777;28;955;-38
2022/03/27 12:49:02;;;;;;;;;;;23.90;45.90;;;;;;4977074;28;1110;-38
2022/03/27 12:51:30;;;;;;;;;;;24.00;46.00;;;;;;4977190;28;1906;-38
2022/03/27 12:54:01;;;;;;;;;;;23.90;45.90;;;;;;4975486;28;1001;-39
2022/03/27 12:56:28;;;;;;;;;;;23.90;45.90;;;;;;4976703;28;934;-39
2022/03/27 12:58:56;;;;;;;;;;;24.00;46.00;;;;;;4977882;28;1306;-39
2022/03/27 13:01:23;;;;;;;;;;;24.00;45.90;;;;;;4976799;28;1291;-40
2022/03/27 13:04:01;;;;;;;;;;;24.00;45.90;;;;;;4977698;28;1042;-39
2022/03/27 13:06:35;;;;;;;;;;;24.00;46.00;;;;;;4977932;28;1707;-39
2022/03/27 13:09:04;;;;;;;;;;;23.90;45.90;;;;;;4979017;28;1884;-39
2022/03/27 13:11:31;;;;;;;;;;;23.90;45.90;;;;;;4977417;28;1898;-38
2022/03/27 13:14:00;;;;;;;;;;;23.90;45.90;;;;;;4976824;28;1029;-38
2022/03/27 13:16:27;;;;;;;;;;;24.00;46.00;;;;;;4977326;28;1048;-39
2022/03/27 13:19:03;;;;;;;;;;;24.00;46.00;;;;;;4978222;28;1002;-38
2022/03/27 13:21:31;;;;;;;;;;;24.00;46.00;;;;;;4976214;28;1392;-39
2022/03/27 13:23:58;;;;;;;;;;;24.00;46.00;;;;;;4976886;28;1688;-38
2022/03/27 13:26:25;;;;;;;;;;;24.00;46.00;;;;;;4977816;28;942;-38
2022/03/27 13:28:52;;;;;;;;;;;24.00;46.00;;;;;;4977556;28;1025;-38
2022/03/27 13:31:19;;;;;;;;;;;24.00;47.10;;;;;;4976124;28;1987;-38
2022/03/27 13:33:46;;;;;;;;;;;24.00;46.00;;;;;;4976918;28;1379;-37
2022/03/27 13:36:14;;;;;;;;;;;24.00;46.00;;;;;;4976168;28;982;-38
2022/03/27 13:38:41;;;;;;;;;;;24.00;46.00;;;;;;4975613;28;966;-37
2022/03/27 13:43:54;;;;;;;;;;;24.00;46.00;;;;;;4975768;28;987;-38
2022/03/27 13:46:21;;;;;;;;;;;24.00;45.90;;;;;;4977087;28;854;-38
2022/03/27 13:48:48;;;;;;;;;;;24.00;46.00;;;;;;4975062;28;1021;-38
2022/03/27 13:51:17;;;;;;;;;;;24.00;46.10;;;;;;4976239;28;1977;-40
2022/03/27 13:53:45;;;;;;;;;;;24.10;46.40;;;;;;4975938;28;1584;-40
2022/03/27 13:56:12;;;;;;;;;;;24.10;45.50;;;;;;4977814;28;946;-39
2022/03/27 13:58:39;;;;;;;;;;;24.00;45.80;;;;;;4978796;28;999;-41
2022/03/27 14:01:06;;;;;;;;;;;24.10;45.90;;;;;;4962163;28;1491;-39
2022/03/27 14:03:33;;;;;;;;;;;24.00;46.00;;;;;;4959006;29;1028;-40
2022/03/27 14:06:01;;;;;;;;;;;24.00;46.10;;;;;;4959673;29;1013;-41
2022/03/27 14:08:29;;;;;;;;;;;24.00;46.30;;;;;;4958373;29;1018;-39
2022/03/27 14:10:56;;;;;;;;;;;24.00;46.50;;;;;;4959217;29;1991;-39
2022/03/27 14:13:26;;;;;;;;;;;24.00;46.60;;;;;;4958768;29;1135;-41
2022/03/27 14:15:53;;;;;;;;;;;24.00;46.50;;;;;;4959155;29;1337;-38
2022/03/27 14:18:20;;;;;;;;;;;24.10;46.50;;;;;;4958555;29;1806;-41
2022/03/27 14:20:47;;;;;;;;;;;24.10;46.80;;;;;;4957106;29;926;-40
2022/03/27 14:23:14;;;;;;;;;;;24.20;46.60;;;;;;4952469;29;1034;-41
2022/03/27 14:25:43;;;;;;;;;;;24.20;46.30;;;;;;4958944;29;946;-41
2022/03/27 14:28:11;;;;;;;;;;;24.30;46.40;;;;;;4958810;29;938;-40
2022/03/27 14:30:38;;;;;;;;;;;24.20;46.30;;;;;;4960799;29;989;-41
2022/03/27 14:33:05;;;;;;;;;;;24.30;46.00;;;;;;4959228;29;1895;-40
2022/03/27 14:35:32;;;;;;;;;;;24.30;45.80;;;;;;4960700;29;986;-39
2022/03/27 14:37:59;;;;;;;;;;;24.30;46.00;;;;;;4960459;29;1030;-39
2022/03/27 14:40:26;;;;;;;;;;;24.30;46.00;;;;;;4960774;29;1492;-39
2022/03/27 14:42:54;;;;;;;;;;;24.40;45.90;;;;;;4960701;29;997;-44
2022/03/27 14:45:21;;;;;;;;;;;24.40;45.80;;;;;;4959306;29;1139;-45
2022/03/27 14:47:55;;;;;;;;;;;24.40;45.60;;;;;;4958246;29;983;-45
2022/03/27 14:50:23;;;;;;;;;;;24.40;45.60;;;;;;4958667;29;1503;-43
2022/03/27 14:52:50;;;;;;;;;;;24.50;45.50;;;;;;4956819;29;1978;-43
2022/03/27 14:58:06;;;;;;;;;;;24.50;45.70;;;;;;4957781;29;899;-44